Time;durP1;ratioP1;P1;durP2;ratioP2;P2;SDS_P1;SDS_P2;PMS_P1;PMS_P2;Temp;Humidity;BMP_temperature;BMP_pressure;BME280_temperature;BME280_humidity;BME280_pressure;Samples;Min_cycle;Max_cycle;Signal;HPM_P1;HPM_P2
2023/08/19 00:02:04;;;;;;;10.63;8.23;;;20.70;99.90;;;;;;5045537;28;20659;-80
2023/08/19 00:04:30;;;;;;;11.98;8.00;;;20.70;99.90;;;;;;5045097;28;20183;-81
2023/08/19 00:06:56;;;;;;;13.52;8.20;;;20.80;99.90;;;;;;5045152;28;20187;-80
2023/08/19 00:09:22;;;;;;;16.95;8.60;;;20.70;99.90;;;;;;5043508;28;20266;-80
2023/08/19 00:11:47;;;;;;;13.40;8.48;;;20.70;99.90;;;;;;5042455;28;20211;-79
2023/08/19 00:14:13;;;;;;;12.65;8.10;;;20.70;99.90;;;;;;5042532;28;20260;-80
2023/08/19 00:16:39;;;;;;;10.95;8.10;;;20.70;99.90;;;;;;5043558;28;20183;-80
2023/08/19 00:19:05;;;;;;;10.38;8.07;;;20.70;99.90;;;;;;5042018;28;20254;-79
2023/08/19 00:21:30;;;;;;;12.43;8.45;;;20.70;99.90;;;;;;5043034;28;20171;-79
2023/08/19 00:23:57;;;;;;;13.77;8.43;;;20.70;99.90;;;;;;5042122;28;20176;-79
2023/08/19 00:26:25;;;;;;;12.70;8.82;;;20.60;99.90;;;;;;5044541;28;20171;-79
2023/08/19 00:28:51;;;;;;;10.45;7.72;;;20.50;99.90;;;;;;5044080;28;20205;-80
2023/08/19 00:31:16;;;;;;;8.57;7.55;;;20.50;99.90;;;;;;5050671;28;20175;-79
2023/08/19 00:33:42;;;;;;;11.25;7.93;;;20.50;99.90;;;;;;5043645;28;20613;-79
2023/08/19 00:36:08;;;;;;;12.13;7.40;;;20.50;99.90;;;;;;5044067;28;20556;-79
2023/08/19 00:38:34;;;;;;;12.02;8.00;;;20.50;99.90;;;;;;5043728;28;20726;-79
2023/08/19 00:40:59;;;;;;;13.88;7.82;;;20.40;99.90;;;;;;5045177;28;20171;-79
2023/08/19 00:43:25;;;;;;;13.02;7.60;;;20.40;99.90;;;;;;5043525;28;20234;-79
2023/08/19 00:45:51;;;;;;;11.23;8.02;;;20.40;99.90;;;;;;5043800;28;20206;-79
2023/08/19 00:48:19;;;;;;;11.82;8.02;;;20.40;99.90;;;;;;5042609;28;20187;-78
2023/08/19 00:50:45;;;;;;;14.00;8.35;;;20.40;99.90;;;;;;5041894;28;20228;-80
2023/08/19 00:53:13;;;;;;;11.30;8.50;;;20.30;99.90;;;;;;5040998;28;20224;-80
2023/08/19 00:55:39;;;;;;;12.55;8.25;;;20.30;99.90;;;;;;5042761;28;20218;-80
2023/08/19 00:58:07;;;;;;;14.02;9.05;;;20.30;99.90;;;;;;5041126;28;20206;-79
2023/08/19 01:00:34;;;;;;;18.92;8.75;;;20.30;99.90;;;;;;5041533;28;20181;-79
2023/08/19 01:03:00;;;;;;;11.32;8.80;;;20.20;99.90;;;;;;5040597;28;20679;-79
2023/08/19 01:06:09;;;;;;;15.63;8.52;;;20.20;99.90;;;;;;5041022;28;20175;-79
2023/08/19 01:09:07;;;;;;;16.13;8.68;;;20.10;99.90;;;;;;5040012;28;20316;-80
2023/08/19 01:12:12;;;;;;;13.60;8.15;;;20.10;99.90;;;;;;5033298;28;20187;-79
2023/08/19 01:14:54;;;;;;;12.80;7.95;;;20.10;99.90;;;;;;5040631;28;20210;-80
2023/08/19 01:17:25;;;;;;;11.32;8.20;;;20.00;99.90;;;;;;5039931;28;20289;-79
2023/08/19 01:19:52;;;;;;;10.60;7.53;;;19.90;99.90;;;;;;5040892;28;20171;-79
2023/08/19 01:22:34;;;;;;;14.73;7.70;;;19.90;99.90;;;;;;5040554;28;20203;-80
2023/08/19 01:25:01;;;;;;;13.65;7.63;;;19.90;99.90;;;;;;5041346;28;20628;-79
2023/08/19 01:27:26;;;;;;;10.48;7.55;;;19.80;99.90;;;;;;5040888;28;20194;-79
2023/08/19 01:29:55;;;;;;;11.20;7.15;;;19.80;99.90;;;;;;5041147;28;20187;-79
2023/08/19 01:32:22;;;;;;;11.20;7.13;;;19.80;99.90;;;;;;5041604;28;20752;-80
2023/08/19 01:34:49;;;;;;;8.50;7.38;;;19.70;99.90;;;;;;5040985;28;20577;-78
2023/08/19 01:37:39;;;;;;;9.13;7.05;;;19.70;99.90;;;;;;5040827;28;20175;-80
2023/08/19 01:40:08;;;;;;;10.48;7.50;;;19.70;99.90;;;;;;5041213;28;20216;-80
2023/08/19 01:42:34;;;;;;;11.88;7.65;;;19.70;99.90;;;;;;5041014;28;20198;-79
2023/08/19 01:45:02;;;;;;;11.88;8.07;;;19.60;99.90;;;;;;5042279;28;20171;-80
2023/08/19 01:47:28;;;;;;;11.52;7.38;;;19.60;99.90;;;;;;5040932;28;20179;-79
2023/08/19 01:49:54;;;;;;;10.43;7.65;;;19.60;99.90;;;;;;5042118;28;20233;-79
2023/08/19 01:52:20;;;;;;;10.68;7.45;;;19.50;99.90;;;;;;5041982;28;20633;-79
2023/08/19 01:54:46;;;;;;;15.65;8.38;;;19.50;99.90;;;;;;5043568;28;20205;-79
2023/08/19 01:57:11;;;;;;;8.02;6.95;;;19.60;99.90;;;;;;5043684;28;20175;-79
2023/08/19 01:59:37;;;;;;;11.55;6.90;;;19.50;99.90;;;;;;5041000;28;20221;-79
2023/08/19 02:02:03;;;;;;;10.15;7.18;;;19.50;99.90;;;;;;5041260;28;20588;-79
2023/08/19 02:04:29;;;;;;;11.70;7.57;;;19.50;99.90;;;;;;5040123;28;20190;-78
2023/08/19 02:06:54;;;;;;;13.68;7.90;;;19.60;99.90;;;;;;5039825;28;20214;-79
2023/08/19 02:09:20;;;;;;;13.35;7.50;;;19.60;99.90;;;;;;5040027;28;20186;-79
2023/08/19 02:11:46;;;;;;;11.75;7.03;;;19.50;99.90;;;;;;5040448;28;20179;-79
2023/08/19 02:14:12;;;;;;;12.98;7.20;;;19.50;99.90;;;;;;5039582;28;20195;-79
2023/08/19 02:16:37;;;;;;;10.70;7.50;;;19.50;99.90;;;;;;5039372;28;20198;-79
2023/08/19 02:19:04;;;;;;;12.02;6.40;;;19.50;99.90;;;;;;5038530;28;20182;-78
2023/08/19 02:21:29;;;;;;;10.65;7.72;;;19.50;99.90;;;;;;5040424;28;20261;-79
2023/08/19 02:23:55;;;;;;;12.60;7.22;;;19.40;99.90;;;;;;5039847;28;20203;-80
2023/08/19 02:26:21;;;;;;;12.45;7.40;;;19.40;99.90;;;;;;5039759;28;20218;-79
2023/08/19 02:28:47;;;;;;;11.88;6.95;;;19.40;99.90;;;;;;5040728;28;20171;-79
2023/08/19 02:31:13;;;;;;;11.07;7.05;;;19.30;99.90;;;;;;5041291;28;20249;-80
2023/08/19 02:33:40;;;;;;;12.05;6.50;;;19.30;99.90;;;;;;5039255;28;20217;-79
2023/08/19 02:36:06;;;;;;;9.73;6.63;;;19.30;99.90;;;;;;5039151;28;20545;-79
2023/08/19 02:38:32;;;;;;;10.70;7.40;;;19.30;99.90;;;;;;5039637;28;20214;-80
2023/08/19 02:40:58;;;;;;;11.80;6.45;;;19.30;99.90;;;;;;5040038;28;20245;-79
2023/08/19 02:43:23;;;;;;;9.27;7.05;;;19.30;99.90;;;;;;5039280;28;20225;-79
2023/08/19 02:45:49;;;;;;;12.60;7.03;;;19.30;99.90;;;;;;5039839;28;20183;-79
2023/08/19 02:48:15;;;;;;;13.13;7.13;;;19.30;99.90;;;;;;5031621;28;20230;-79
2023/08/19 02:50:42;;;;;;;12.73;6.85;;;19.30;99.90;;;;;;5019452;28;20207;-79
2023/08/19 02:53:07;;;;;;;8.80;6.80;;;19.30;99.90;;;;;;5019579;28;20581;-79
2023/08/19 02:55:33;;;;;;;10.35;6.82;;;19.20;99.90;;;;;;5019595;28;20171;-79
2023/08/19 02:58:02;;;;;;;8.82;6.82;;;19.20;99.90;;;;;;5019728;28;20187;-79
2023/08/19 03:00:28;;;;;;;11.15;6.80;;;19.20;99.90;;;;;;5021885;28;20179;-79
2023/08/19 03:02:54;;;;;;;11.32;7.13;;;19.20;99.90;;;;;;5021174;28;20196;-79
2023/08/19 03:05:20;;;;;;;10.35;6.60;;;19.20;99.90;;;;;;5019360;28;20206;-78
2023/08/19 03:07:46;;;;;;;12.60;7.07;;;19.20;99.90;;;;;;5019850;28;20211;-79
2023/08/19 03:10:11;;;;;;;11.77;6.47;;;19.10;99.90;;;;;;5019946;28;20180;-79
2023/08/19 03:12:37;;;;;;;9.60;7.25;;;19.10;99.90;;;;;;5019218;28;20203;-79
2023/08/19 03:15:03;;;;;;;10.57;7.30;;;19.10;99.90;;;;;;5019616;28;20207;-79
2023/08/19 03:17:29;;;;;;;9.02;6.25;;;19.10;99.90;;;;;;5023127;28;20211;-79
2023/08/19 03:19:55;;;;;;;10.93;6.65;;;19.10;99.90;;;;;;5039998;28;20228;-79
2023/08/19 03:22:20;;;;;;;11.35;7.03;;;19.10;99.90;;;;;;5040618;28;20209;-79
2023/08/19 03:24:46;;;;;;;13.48;6.50;;;19.10;99.90;;;;;;5040850;28;20210;-79
2023/08/19 03:27:12;;;;;;;9.82;6.22;;;19.10;99.90;;;;;;5038511;28;20192;-79
2023/08/19 03:29:37;;;;;;;10.65;6.93;;;19.00;99.90;;;;;;5039401;28;20175;-79
2023/08/19 03:32:03;;;;;;;11.23;6.70;;;18.90;99.90;;;;;;5041626;28;20206;-79
2023/08/19 03:34:29;;;;;;;10.80;6.70;;;18.90;99.90;;;;;;5041730;28;20667;-79
2023/08/19 03:36:55;;;;;;;10.43;6.55;;;18.90;99.90;;;;;;5043476;28;20530;-80
2023/08/19 03:39:20;;;;;;;11.48;6.72;;;18.90;99.90;;;;;;5043990;28;20179;-80
2023/08/19 03:41:46;;;;;;;9.07;6.55;;;18.90;99.90;;;;;;5043030;28;20167;-80
2023/08/19 03:44:12;;;;;;;11.95;6.85;;;18.90;99.90;;;;;;5043683;28;20187;-79
2023/08/19 03:46:38;;;;;;;9.25;7.03;;;18.90;99.90;;;;;;5042357;28;20179;-79
2023/08/19 03:49:04;;;;;;;12.25;6.30;;;18.90;99.90;;;;;;5041162;28;20561;-79
2023/08/19 03:51:30;;;;;;;11.95;6.28;;;18.90;99.90;;;;;;5042828;28;20187;-80
2023/08/19 03:53:56;;;;;;;7.90;6.43;;;18.80;99.90;;;;;;5040982;28;20203;-80
2023/08/19 03:56:22;;;;;;;13.32;6.07;;;18.90;99.90;;;;;;5042065;28;20186;-79
2023/08/19 03:58:48;;;;;;;13.68;7.35;;;18.80;99.90;;;;;;5050130;28;20175;-79
2023/08/19 04:01:14;;;;;;;13.85;6.65;;;18.80;99.90;;;;;;5048138;28;20174;-79
2023/08/19 04:03:39;;;;;;;7.35;5.97;;;18.80;99.90;;;;;;5037612;28;20203;-79
2023/08/19 04:06:05;;;;;;;10.05;6.80;;;18.90;99.90;;;;;;5039238;28;20159;-79
2023/08/19 04:08:31;;;;;;;11.15;6.70;;;18.90;99.90;;;;;;5036442;28;20669;-79
2023/08/19 04:11:07;;;;;;;12.93;7.57;;;18.80;99.90;;;;;;5035735;28;20190;-79
2023/08/19 04:13:33;;;;;;;7.60;6.00;;;18.80;99.90;;;;;;5036870;28;20575;-79
2023/08/19 04:16:06;;;;;;;7.65;6.07;;;18.80;99.90;;;;;;5037459;28;20176;-79
2023/08/19 04:18:33;;;;;;;9.40;6.28;;;18.80;99.90;;;;;;5037559;28;20182;-79
2023/08/19 04:21:05;;;;;;;7.97;5.85;;;18.80;99.90;;;;;;5035849;28;20183;-78
2023/08/19 04:23:34;;;;;;;14.90;6.95;;;18.80;99.90;;;;;;5037912;28;20199;-79
2023/08/19 04:26:00;;;;;;;9.25;6.45;;;18.70;99.90;;;;;;5036560;28;20198;-79
2023/08/19 04:28:26;;;;;;;9.52;6.22;;;18.70;99.90;;;;;;5036310;28;20175;-79
2023/08/19 04:31:06;;;;;;;8.32;5.57;;;18.70;99.90;;;;;;5037317;28;20232;-79
2023/08/19 04:33:33;;;;;;;7.90;5.95;;;18.70;99.90;;;;;;5037589;28;20203;-79
2023/08/19 04:35:59;;;;;;;10.98;5.95;;;18.70;99.90;;;;;;5037540;28;20226;-79
2023/08/19 04:38:25;;;;;;;8.98;6.38;;;18.70;99.90;;;;;;5036545;28;20613;-79
2023/08/19 04:40:51;;;;;;;8.82;6.25;;;18.70;99.90;;;;;;5036914;28;20178;-79
2023/08/19 04:43:20;;;;;;;8.77;5.88;;;18.60;99.90;;;;;;5035730;28;20195;-79
2023/08/19 04:45:47;;;;;;;8.48;6.10;;;18.60;99.90;;;;;;5035864;28;20689;-79
2023/08/19 04:48:14;;;;;;;8.68;5.55;;;18.70;99.90;;;;;;5036017;28;20517;-79
2023/08/19 04:50:39;;;;;;;9.32;6.05;;;18.80;99.90;;;;;;5035988;28;20207;-79
2023/08/19 04:53:05;;;;;;;12.55;5.45;;;18.80;99.90;;;;;;5034643;28;20207;-79
2023/08/19 04:55:31;;;;;;;6.57;5.63;;;18.90;99.90;;;;;;5035111;28;20190;-79
2023/08/19 04:57:57;;;;;;;9.38;5.90;;;18.90;99.90;;;;;;5035936;28;20654;-79
2023/08/19 05:00:23;;;;;;;10.13;6.15;;;19.00;99.90;;;;;;5036809;28;20190;-79
2023/08/19 05:02:49;;;;;;;10.27;6.15;;;19.00;99.90;;;;;;5036312;28;20211;-79
2023/08/19 05:05:15;;;;;;;9.18;5.20;;;19.10;99.90;;;;;;5035961;28;20643;-79
2023/08/19 05:07:41;;;;;;;7.38;5.60;;;19.10;99.90;;;;;;5035982;28;20187;-80
2023/08/19 05:10:08;;;;;;;10.23;5.63;;;19.20;99.90;;;;;;5035828;28;20222;-80
2023/08/19 05:12:35;;;;;;;9.65;5.57;;;19.30;99.90;;;;;;5037271;28;20198;-80
2023/08/19 05:15:01;;;;;;;8.57;5.57;;;19.30;99.90;;;;;;5038084;28;20256;-80
2023/08/19 05:17:26;;;;;;;10.85;6.05;;;19.40;99.90;;;;;;5039864;28;20171;-79
2023/08/19 05:19:54;;;;;;;6.65;5.60;;;19.40;99.90;;;;;;5039111;28;20549;-79
2023/08/19 05:22:22;;;;;;;9.07;5.68;;;19.40;99.90;;;;;;5039569;28;20218;-80
2023/08/19 05:24:49;;;;;;;8.88;5.85;;;19.50;99.90;;;;;;5040272;28;20564;-80
2023/08/19 05:27:15;;;;;;;8.55;6.00;;;19.60;99.90;;;;;;5039664;28;20265;-80
2023/08/19 05:29:41;;;;;;;10.80;5.88;;;19.60;99.90;;;;;;5040617;28;20191;-79
2023/08/19 05:32:07;;;;;;;9.68;5.70;;;19.70;99.90;;;;;;5041432;28;20210;-79
2023/08/19 05:34:33;;;;;;;9.25;6.07;;;19.70;99.90;;;;;;5039781;28;20291;-79
2023/08/19 05:37:00;;;;;;;8.48;5.53;;;19.80;99.90;;;;;;5039466;28;20178;-79
2023/08/19 05:39:25;;;;;;;9.45;6.38;;;19.80;99.90;;;;;;5038684;28;20179;-79
2023/08/19 05:41:51;;;;;;;7.63;5.07;;;19.90;99.90;;;;;;5045616;28;20199;-80
2023/08/19 05:44:17;;;;;;;7.93;5.22;;;19.90;99.90;;;;;;5048264;28;20187;-79
2023/08/19 05:46:43;;;;;;;9.38;5.65;;;20.00;99.90;;;;;;5049004;28;20183;-80
2023/08/19 05:49:08;;;;;;;7.43;5.45;;;20.10;99.90;;;;;;5034972;28;20175;-78
2023/08/19 05:51:34;;;;;;;8.90;5.38;;;20.20;99.90;;;;;;5034876;28;20282;-79
2023/08/19 05:54:01;;;;;;;9.00;5.18;;;20.20;99.90;;;;;;5036055;28;20199;-79
2023/08/19 05:56:27;;;;;;;6.38;5.45;;;20.30;99.90;;;;;;5035010;28;20171;-80
2023/08/19 05:58:53;;;;;;;7.85;5.53;;;20.40;99.90;;;;;;5035545;28;20171;-79
2023/08/19 06:01:19;;;;;;;9.85;5.85;;;20.50;99.90;;;;;;5034539;28;20572;-78
2023/08/19 06:03:44;;;;;;;8.93;5.50;;;20.50;99.90;;;;;;5034905;28;20682;-79
2023/08/19 06:06:10;;;;;;;7.45;5.28;;;20.60;99.90;;;;;;5034755;28;20204;-78
2023/08/19 06:08:36;;;;;;;7.80;4.53;;;20.70;99.90;;;;;;5033714;28;20248;-79
2023/08/19 06:11:07;;;;;;;7.65;4.90;;;20.80;99.90;;;;;;5034476;28;20578;-79
2023/08/19 06:13:34;;;;;;;5.90;4.65;;;20.80;99.90;;;;;;5034182;28;20725;-79
2023/08/19 06:16:00;;;;;;;6.32;5.18;;;20.90;99.90;;;;;;5033026;28;20209;-79
2023/08/19 06:18:26;;;;;;;6.38;4.63;;;21.10;99.90;;;;;;5034484;28;20168;-79
2023/08/19 06:20:52;;;;;;;6.10;4.68;;;21.20;99.90;;;;;;5032681;28;20211;-78
2023/08/19 06:23:18;;;;;;;9.82;4.80;;;21.30;99.90;;;;;;5032694;28;20285;-79
2023/08/19 06:25:48;;;;;;;9.63;5.20;;;21.40;99.90;;;;;;5033999;28;20175;-79
2023/08/19 06:28:15;;;;;;;10.30;5.28;;;21.50;99.90;;;;;;5034616;28;20163;-79
2023/08/19 06:30:42;;;;;;;5.55;4.93;;;21.60;99.90;;;;;;5034215;28;20195;-79
2023/08/19 06:33:08;;;;;;;5.57;4.60;;;21.70;99.90;;;;;;5034033;28;20203;-79
2023/08/19 06:35:35;;;;;;;5.57;4.57;;;21.80;99.90;;;;;;5032165;28;20683;-78
2023/08/19 06:38:06;;;;;;;8.68;5.13;;;21.90;99.90;;;;;;5032491;28;20180;-79
2023/08/19 06:40:35;;;;;;;8.88;4.50;;;22.00;99.90;;;;;;5032636;28;20179;-79
2023/08/19 06:43:04;;;;;;;5.40;4.60;;;22.10;99.90;;;;;;5032458;28;20206;-79
2023/08/19 06:45:30;;;;;;;7.95;4.45;;;22.20;99.90;;;;;;5033108;28;20643;-79
2023/08/19 06:47:58;;;;;;;6.15;4.35;;;22.30;99.90;;;;;;5033746;28;20190;-79
2023/08/19 06:50:24;;;;;;;6.60;4.47;;;22.40;99.90;;;;;;5033103;28;20179;-78
2023/08/19 06:52:50;;;;;;;8.57;4.70;;;22.50;99.90;;;;;;5033010;28;20736;-79
2023/08/19 06:55:16;;;;;;;6.68;4.80;;;22.60;99.90;;;;;;5032149;28;20209;-79
2023/08/19 06:57:58;;;;;;;7.65;4.70;;;22.70;99.90;;;;;;5032408;28;20179;-79
2023/08/19 07:00:25;;;;;;;7.22;4.18;;;22.90;99.90;;;;;;5033708;28;20239;-79
2023/08/19 07:02:53;;;;;;;7.63;4.05;;;23.00;99.90;;;;;;5033669;28;20206;-79
2023/08/19 07:05:20;;;;;;;9.43;4.72;;;23.10;99.90;;;;;;5035466;28;20171;-79
2023/08/19 07:07:49;;;;;;;9.27;4.18;;;23.20;99.90;;;;;;5037650;28;20175;-79
2023/08/19 07:10:20;;;;;;;6.65;4.13;;;23.30;99.90;;;;;;5036503;28;20179;-78
2023/08/19 07:12:47;;;;;;;5.78;3.88;;;23.40;99.90;;;;;;5037740;28;20270;-79
2023/08/19 07:15:13;;;;;;;6.13;3.92;;;23.50;99.90;;;;;;5036110;28;20302;-79
2023/08/19 07:17:44;;;;;;;10.32;4.65;;;23.60;99.90;;;;;;5036267;28;20179;-79
2023/08/19 07:20:17;;;;;;;6.00;3.97;;;23.70;99.90;;;;;;5036168;28;20213;-78
2023/08/19 07:22:48;;;;;;;6.32;3.83;;;23.80;99.90;;;;;;5037412;28;20262;-79
2023/08/19 07:25:14;;;;;;;12.02;4.38;;;23.90;99.90;;;;;;5037653;28;20197;-79
2023/08/19 07:27:43;;;;;;;5.20;3.58;;;24.00;99.90;;;;;;5036116;28;20210;-79
2023/08/19 07:30:10;;;;;;;5.05;3.67;;;24.10;99.90;;;;;;5036028;28;20639;-79
2023/08/19 07:32:36;;;;;;;5.15;3.63;;;24.20;99.90;;;;;;5035897;28;20667;-79
2023/08/19 07:35:03;;;;;;;7.82;3.47;;;24.20;99.90;;;;;;5035620;28;20295;-78
2023/08/19 07:37:29;;;;;;;5.55;4.07;;;24.30;99.90;;;;;;5036476;28;20248;-79
2023/08/19 07:39:56;;;;;;;5.40;3.85;;;24.40;99.90;;;;;;5036456;28;20690;-79
2023/08/19 07:42:22;;;;;;;8.02;3.88;;;24.40;99.90;;;;;;5037360;28;20206;-79
2023/08/19 07:44:48;;;;;;;7.95;4.07;;;24.50;99.90;;;;;;5037999;28;20179;-79
2023/08/19 07:47:14;;;;;;;4.88;3.80;;;24.50;99.90;;;;;;5037996;28;20186;-79
2023/08/19 07:49:39;;;;;;;4.65;3.50;;;24.60;99.90;;;;;;5039747;28;20171;-79
2023/08/19 07:52:06;;;;;;;6.00;5.13;;;24.60;99.90;;;;;;5037927;28;20245;-79
2023/08/19 07:54:31;;;;;;;7.45;5.53;;;24.70;99.90;;;;;;5039236;28;20199;-79
2023/08/19 07:56:59;;;;;;;6.07;4.82;;;24.70;99.90;;;;;;5040538;28;20182;-79
2023/08/19 07:59:27;;;;;;;5.75;3.85;;;24.70;99.90;;;;;;5042487;28;20193;-79
2023/08/19 08:01:54;;;;;;;8.48;3.70;;;24.70;99.90;;;;;;5031200;28;20210;-79
2023/08/19 08:04:21;;;;;;;5.35;3.45;;;24.80;99.90;;;;;;5025707;28;20176;-79
2023/08/19 08:06:49;;;;;;;8.45;3.72;;;24.80;99.90;;;;;;5025618;28;20243;-79
2023/08/19 08:09:15;;;;;;;5.55;3.65;;;24.90;99.90;;;;;;5024539;28;20184;-79
2023/08/19 08:11:45;;;;;;;5.38;3.35;;;24.90;99.90;;;;;;5023155;28;20263;-79
2023/08/19 08:14:11;;;;;;;7.57;4.00;;;25.00;99.90;;;;;;5020213;28;20200;-79
2023/08/19 08:16:37;;;;;;;4.18;3.40;;;25.00;99.90;;;;;;5017505;28;20547;-79
2023/08/19 08:19:03;;;;;;;6.65;3.72;;;25.20;99.90;;;;;;5018654;28;20202;-79
2023/08/19 08:21:29;;;;;;;4.35;3.15;;;25.20;99.90;;;;;;5018522;28;20644;-80
2023/08/19 08:23:55;;;;;;;6.40;3.53;;;25.30;99.90;;;;;;5019114;28;20200;-80
2023/08/19 08:26:23;;;;;;;7.97;3.70;;;25.40;99.90;;;;;;5020917;28;20183;-80
2023/08/19 08:28:50;;;;;;;7.20;4.13;;;25.50;99.90;;;;;;5020758;28;20176;-80
2023/08/19 08:31:16;;;;;;;9.13;4.05;;;25.60;99.90;;;;;;5020699;28;20714;-80
2023/08/19 08:33:42;;;;;;;5.20;3.95;;;25.60;99.90;;;;;;5039060;28;20721;-79
2023/08/19 08:36:08;;;;;;;8.07;3.92;;;25.60;99.90;;;;;;5038686;28;20175;-79
2023/08/19 08:38:34;;;;;;;5.80;3.70;;;25.60;99.90;;;;;;5041174;28;20194;-80
2023/08/19 08:41:03;;;;;;;7.15;3.65;;;25.50;99.90;;;;;;5039689;28;20171;-80
2023/08/19 08:43:33;;;;;;;5.72;4.10;;;25.60;99.90;;;;;;5040038;28;20210;-79
2023/08/19 08:46:00;;;;;;;4.60;3.50;;;25.60;99.90;;;;;;5040377;28;20301;-80
2023/08/19 08:48:31;;;;;;;6.00;3.90;;;25.60;99.90;;;;;;5040927;28;20301;-80
2023/08/19 08:50:58;;;;;;;6.25;3.80;;;25.50;99.90;;;;;;5040731;28;20167;-79
2023/08/19 08:53:27;;;;;;;8.50;3.70;;;25.50;99.90;;;;;;5039510;28;20207;-80
2023/08/19 08:55:54;;;;;;;6.10;3.60;;;25.50;99.90;;;;;;5039867;28;20180;-79
2023/08/19 08:58:20;;;;;;;7.88;4.13;;;25.40;99.90;;;;;;5040496;28;20175;-80
2023/08/19 09:00:48;;;;;;;5.28;3.88;;;25.40;99.90;;;;;;5040205;28;20209;-79
2023/08/19 09:03:18;;;;;;;11.23;4.30;;;25.40;99.90;;;;;;5040393;28;20290;-80
2023/08/19 09:05:48;;;;;;;6.22;3.80;;;25.40;99.90;;;;;;5040299;28;20167;-79
2023/08/19 09:08:17;;;;;;;6.68;3.72;;;25.40;99.90;;;;;;5041048;28;20175;-80
2023/08/19 09:10:45;;;;;;;9.15;3.80;;;25.50;99.90;;;;;;5042743;28;20182;-80
2023/08/19 09:13:17;;;;;;;4.80;3.72;;;25.50;99.90;;;;;;5042563;28;20583;-79
2023/08/19 09:15:43;;;;;;;6.25;3.90;;;25.60;99.90;;;;;;5041554;28;20167;-80
2023/08/19 09:18:09;;;;;;;4.45;3.80;;;25.60;99.90;;;;;;5042207;28;20187;-80
2023/08/19 09:20:36;;;;;;;7.07;4.13;;;25.70;99.90;;;;;;5041867;28;20647;-80
2023/08/19 09:23:09;;;;;;;7.97;4.53;;;25.70;99.90;;;;;;5043167;28;20226;-80
2023/08/19 09:25:37;;;;;;;9.77;4.90;;;25.80;99.90;;;;;;5044103;28;20175;-79
2023/08/19 09:28:17;;;;;;;7.88;4.95;;;25.90;99.90;;;;;;5044005;28;20199;-80
2023/08/19 09:30:42;;;;;;;8.20;4.90;;;26.00;99.90;;;;;;5043647;28;20201;-79
2023/08/19 09:33:08;;;;;;;6.97;4.72;;;26.20;99.90;;;;;;5043913;28;20222;-80
2023/08/19 09:35:36;;;;;;;8.30;4.95;;;26.30;99.90;;;;;;5045066;28;20195;-80
2023/08/19 09:38:02;;;;;;;7.68;4.32;;;26.60;99.90;;;;;;5045952;28;20175;-80
2023/08/19 09:40:28;;;;;;;10.45;4.68;;;26.90;99.90;;;;;;5046949;28;20171;-79
2023/08/19 09:42:59;;;;;;;7.07;4.05;;;27.20;99.90;;;;;;5045325;28;20191;-80
2023/08/19 09:45:27;;;;;;;6.88;3.90;;;27.30;99.90;;;;;;5046878;28;20674;-80
2023/08/19 09:47:54;;;;;;;5.30;3.60;;;27.40;99.90;;;;;;5043952;28;20179;-79
2023/08/19 09:50:22;;;;;;;7.78;4.72;;;27.40;99.90;;;;;;5047434;28;20262;-79
2023/08/19 09:53:00;;;;;;;6.30;4.00;;;27.50;99.90;;;;;;5043496;28;20211;-80
2023/08/19 09:55:29;;;;;;;11.18;4.10;;;27.40;99.90;;;;;;5046866;28;20190;-78
2023/08/19 09:57:56;;;;;;;6.43;4.10;;;27.30;99.90;;;;;;5043330;28;20631;-78
2023/08/19 10:00:22;;;;;;;7.65;4.30;;;27.20;99.90;;;;;;5042652;28;20171;-78
2023/08/19 10:02:48;;;;;;;9.57;4.18;;;27.10;99.90;;;;;;5039015;28;20203;-78
2023/08/19 10:05:15;;;;;;;6.93;4.20;;;27.10;99.90;;;;;;5035850;28;20269;-77
2023/08/19 10:07:47;;;;;;;7.63;4.15;;;27.10;99.90;;;;;;5034714;28;20544;-77
2023/08/19 10:10:13;;;;;;;7.85;4.18;;;27.10;99.90;;;;;;5035372;28;20164;-77
2023/08/19 10:12:40;;;;;;;8.73;4.38;;;27.20;99.90;;;;;;5037987;28;20226;-78
2023/08/19 10:15:12;;;;;;;5.97;4.18;;;27.20;99.90;;;;;;5036974;28;20195;-77
2023/08/19 10:17:47;;;;;;;6.38;4.00;;;27.20;99.90;;;;;;5034852;28;20174;-78
2023/08/19 10:20:17;;;;;;;5.32;4.22;;;27.40;99.90;;;;;;5037243;28;20166;-79
2023/08/19 10:22:47;;;;;;;7.65;4.70;;;27.40;99.90;;;;;;5037083;28;20282;-78
2023/08/19 10:25:17;;;;;;;10.00;4.35;;;27.30;99.90;;;;;;5037723;28;20549;-77
2023/08/19 10:27:43;;;;;;;6.22;4.00;;;27.40;99.90;;;;;;5033638;28;20600;-75
2023/08/19 10:30:31;;;;;;;6.97;4.22;;;27.40;99.90;;;;;;5035105;28;20174;-81
2023/08/19 10:33:21;;;;;;;6.07;4.13;;;27.40;99.90;;;;;;5034625;28;20258;-81
2023/08/19 10:35:58;;;;;;;6.25;4.50;;;27.40;99.90;;;;;;5036736;28;20554;-80
2023/08/19 10:38:24;;;;;;;7.18;4.35;;;27.60;99.90;;;;;;5036647;28;20297;-79
2023/08/19 10:41:02;;;;;;;9.60;4.70;;;27.60;99.90;;;;;;5037699;28;20191;-80
2023/08/19 10:43:49;;;;;;;9.90;4.35;;;27.70;99.90;;;;;;5038083;28;20663;-81
2023/08/19 10:46:20;;;;;;;7.65;4.28;;;27.80;99.90;;;;;;5037135;28;20199;-79
2023/08/19 10:48:49;;;;;;;7.38;4.22;;;27.90;99.90;;;;;;5038038;28;20198;-78
2023/08/19 10:51:18;;;;;;;9.50;4.20;;;28.00;99.90;;;;;;5035438;28;20191;-78
2023/08/19 10:54:06;;;;;;;6.63;4.18;;;28.10;1.00;;;;;;5033675;28;20199;-77
2023/08/19 10:56:32;;;;;;;5.32;4.30;;;28.10;99.90;;;;;;5036163;28;20225;-78
2023/08/19 10:58:59;;;;;;;7.65;4.00;;;28.10;99.90;;;;;;5036005;28;20187;-78
2023/08/19 11:01:30;;;;;;;7.50;4.40;;;28.10;99.90;;;;;;5035788;28;20171;-78
2023/08/19 11:03:58;;;;;;;9.48;4.75;;;28.10;99.90;;;;;;5035800;28;20195;-80
2023/08/19 11:06:31;;;;;;;6.10;3.80;;;28.10;99.90;;;;;;5034868;28;20195;-77
2023/08/19 11:09:00;;;;;;;6.03;3.92;;;28.20;99.90;;;;;;5035584;28;20194;-78
2023/08/19 11:11:26;;;;;;;8.80;4.63;;;28.20;99.90;;;;;;5034964;28;20171;-78
2023/08/19 11:13:52;;;;;;;5.88;4.10;;;28.30;99.90;;;;;;5041054;28;20679;-81
2023/08/19 11:16:23;;;;;;;6.30;3.88;;;28.30;99.90;;;;;;5040583;28;20175;-78
2023/08/19 11:18:50;;;;;;;4.63;3.97;;;28.30;99.90;;;;;;5034677;28;20178;-77
2023/08/19 11:21:18;;;;;;;8.65;3.90;;;28.40;99.90;;;;;;5037389;28;20179;-81
2023/08/19 11:23:44;;;;;;;7.40;3.88;;;28.40;99.90;;;;;;5039369;28;20195;-81
2023/08/19 11:26:10;;;;;;;5.60;4.30;;;28.40;99.90;;;;;;5047008;28;20598;-82
2023/08/19 11:28:37;;;;;;;11.63;4.85;;;28.40;49.10;;;;;;5038196;28;20183;-77
2023/08/19 11:31:02;;;;;;;8.20;4.18;;;28.50;99.90;;;;;;5038478;28;20198;-81
2023/08/19 11:33:32;;;;;;;5.63;4.03;;;28.50;99.90;;;;;;5039598;28;20234;-81
2023/08/19 11:35:58;;;;;;;7.05;4.53;;;28.60;99.90;;;;;;5042075;28;20160;-80
2023/08/19 11:38:23;;;;;;;8.10;4.30;;;28.70;99.90;;;;;;5039265;28;20255;-80
2023/08/19 11:40:52;;;;;;;7.75;4.68;;;28.70;99.90;;;;;;5040951;28;20195;-81
2023/08/19 11:43:23;;;;;;;7.43;4.38;;;28.80;99.90;;;;;;5038600;28;20690;-80
2023/08/19 11:45:49;;;;;;;9.70;4.50;;;28.90;99.90;;;;;;5036688;28;20211;-78
2023/08/19 11:48:15;;;;;;;7.22;4.47;;;29.00;99.90;;;;;;5037466;28;20174;-78
2023/08/19 11:50:46;;;;;;;6.78;4.45;;;29.10;99.90;;;;;;5038571;28;20233;-78
2023/08/19 11:53:28;;;;;;;7.53;4.50;;;29.20;99.90;;;;;;5023437;28;20252;-78
2023/08/19 11:56:00;;;;;;;7.32;4.65;;;29.30;99.90;;;;;;5041420;28;20159;-78
2023/08/19 11:58:46;;;;;;;6.85;4.72;;;29.30;99.90;;;;;;5039905;28;20190;-78
2023/08/19 12:01:12;;;;;;;8.27;4.75;;;29.20;99.90;;;;;;5039180;28;20282;-78
2023/08/19 12:03:45;;;;;;;7.57;5.10;;;29.30;99.90;;;;;;5039862;28;20233;-78
2023/08/19 12:06:12;;;;;;;7.75;4.88;;;29.30;99.90;;;;;;5043863;28;20250;-78
2023/08/19 12:08:40;;;;;;;7.93;4.80;;;29.40;99.90;;;;;;5044715;28;20702;-78
2023/08/19 12:11:06;;;;;;;8.32;4.80;;;29.50;99.90;;;;;;5040784;28;20650;-78
2023/08/19 12:13:32;;;;;;;8.60;5.10;;;29.70;99.90;;;;;;5039685;28;20671;-78
2023/08/19 12:15:58;;;;;;;10.65;5.07;;;29.90;99.90;;;;;;5039741;28;20229;-78
2023/08/19 12:18:24;;;;;;;7.18;5.07;;;30.00;99.90;;;;;;5041071;28;20175;-78
2023/08/19 12:20:52;;;;;;;9.30;4.85;;;29.90;99.90;;;;;;5039372;28;20263;-78
2023/08/19 12:23:18;;;;;;;7.80;4.78;;;29.90;99.90;;;;;;5040257;28;20195;-78
2023/08/19 12:25:56;;;;;;;9.77;4.75;;;29.90;99.90;;;;;;5043503;28;20175;-79
2023/08/19 12:28:25;;;;;;;10.52;5.10;;;29.80;99.90;;;;;;5042023;28;20182;-79
2023/08/19 12:30:52;;;;;;;8.10;5.40;;;29.80;99.90;;;;;;5042561;28;20589;-79
2023/08/19 12:33:19;;;;;;;10.25;6.03;;;29.90;99.90;;;;;;5039833;28;20215;-78
2023/08/19 12:35:46;;;;;;;9.98;5.53;;;30.10;99.90;;;;;;5039426;28;20264;-78
2023/08/19 12:38:17;;;;;;;12.57;5.63;;;30.30;99.90;;;;;;5039613;28;20627;-77
2023/08/19 12:40:44;;;;;;;10.27;5.38;;;30.30;99.90;;;;;;5036498;28;20242;-76
2023/08/19 12:43:10;;;;;;;11.02;6.18;;;30.20;99.90;;;;;;5037720;28;20222;-77
2023/08/19 12:45:37;;;;;;;10.30;5.32;;;30.00;99.90;;;;;;5035402;28;20187;-77
2023/08/19 12:48:03;;;;;;;12.68;5.55;;;29.80;99.90;;;;;;5037014;28;20179;-77